sensor_id;sensor_type;location;lat;lon;timestamp;P1;durP1;ratioP1;P2;durP2;ratioP2
3271;SDS011;1648;50.022;8.424;2023-05-20T00:05:21;6.60;;;3.13;;
3271;SDS011;1648;50.022;8.424;2023-05-20T00:20:25;3.53;;;2.50;;
3271;SDS011;1648;50.022;8.424;2023-05-20T00:35:28;7.50;;;3.17;;
3271;SDS011;1648;50.022;8.424;2023-05-20T00:50:31;3.23;;;2.60;;
3271;SDS011;1648;50.022;8.424;2023-05-20T01:05:36;6.70;;;3.60;;
3271;SDS011;1648;50.022;8.424;2023-05-20T01:20:44;3.20;;;2.90;;
3271;SDS011;1648;50.022;8.424;2023-05-20T01:35:49;4.83;;;3.53;;
3271;SDS011;1648;50.022;8.424;2023-05-20T01:50:52;3.47;;;2.83;;
3271;SDS011;1648;50.022;8.424;2023-05-20T02:05:55;4.80;;;3.53;;
3271;SDS011;1648;50.022;8.424;2023-05-20T02:21:01;3.83;;;3.40;;
3271;SDS011;1648;50.022;8.424;2023-05-20T02:36:05;8.20;;;4.60;;
3271;SDS011;1648;50.022;8.424;2023-05-20T02:51:09;4.83;;;3.90;;
3271;SDS011;1648;50.022;8.424;2023-05-20T03:06:13;7.20;;;4.20;;
3271;SDS011;1648;50.022;8.424;2023-05-20T03:21:16;5.13;;;4.00;;
3271;SDS011;1648;50.022;8.424;2023-05-20T03:36:19;5.27;;;4.20;;
3271;SDS011;1648;50.022;8.424;2023-05-20T03:51:23;6.80;;;4.60;;
3271;SDS011;1648;50.022;8.424;2023-05-20T04:06:27;4.30;;;3.60;;
3271;SDS011;1648;50.022;8.424;2023-05-20T04:21:32;8.10;;;4.73;;
3271;SDS011;1648;50.022;8.424;2023-05-20T04:36:35;8.70;;;4.30;;
3271;SDS011;1648;50.022;8.424;2023-05-20T04:51:39;9.20;;;5.20;;
3271;SDS011;1648;50.022;8.424;2023-05-20T05:06:42;7.33;;;4.60;;
3271;SDS011;1648;50.022;8.424;2023-05-20T05:21:46;11.00;;;4.47;;
3271;SDS011;1648;50.022;8.424;2023-05-20T05:36:49;6.20;;;4.83;;
3271;SDS011;1648;50.022;8.424;2023-05-20T05:51:52;7.60;;;5.30;;
3271;SDS011;1648;50.022;8.424;2023-05-20T06:06:56;7.77;;;5.97;;
3271;SDS011;1648;50.022;8.424;2023-05-20T06:21:59;6.27;;;5.40;;
3271;SDS011;1648;50.022;8.424;2023-05-20T06:37:03;7.73;;;5.33;;
3271;SDS011;1648;50.022;8.424;2023-05-20T06:52:06;8.70;;;5.90;;
3271;SDS011;1648;50.022;8.424;2023-05-20T07:07:11;8.50;;;6.20;;
3271;SDS011;1648;50.022;8.424;2023-05-20T07:22:17;9.70;;;6.63;;
3271;SDS011;1648;50.022;8.424;2023-05-20T07:37:31;11.37;;;6.90;;
3271;SDS011;1648;50.022;8.424;2023-05-20T07:52:34;10.17;;;7.77;;
3271;SDS011;1648;50.022;8.424;2023-05-20T08:07:58;13.30;;;8.30;;
3271;SDS011;1648;50.022;8.424;2023-05-20T08:23:05;13.00;;;7.60;;
3271;SDS011;1648;50.022;8.424;2023-05-20T08:38:08;15.90;;;9.40;;
3271;SDS011;1648;50.022;8.424;2023-05-20T08:53:11;12.27;;;9.17;;
3271;SDS011;1648;50.022;8.424;2023-05-20T09:08:14;29.80;;;16.40;;
3271;SDS011;1648;50.022;8.424;2023-05-20T09:23:17;16.27;;;12.00;;
3271;SDS011;1648;50.022;8.424;2023-05-20T09:38:21;14.40;;;10.70;;
3271;SDS011;1648;50.022;8.424;2023-05-20T09:53:25;12.13;;;8.50;;
3271;SDS011;1648;50.022;8.424;2023-05-20T10:08:36;14.10;;;9.87;;
3271;SDS011;1648;50.022;8.424;2023-05-20T10:23:44;25.90;;;18.20;;
3271;SDS011;1648;50.022;8.424;2023-05-20T10:38:49;13.03;;;8.60;;
3271;SDS011;1648;50.022;8.424;2023-05-20T10:53:54;12.30;;;9.30;;
3271;SDS011;1648;50.022;8.424;2023-05-20T11:09:02;16.00;;;10.37;;
3271;SDS011;1648;50.022;8.424;2023-05-20T11:24:05;13.80;;;9.93;;
3271;SDS011;1648;50.022;8.424;2023-05-20T11:39:09;14.20;;;10.63;;
3271;SDS011;1648;50.022;8.424;2023-05-20T11:54:13;11.77;;;8.40;;
3271;SDS011;1648;50.022;8.424;2023-05-20T12:09:16;12.47;;;9.03;;
3271;SDS011;1648;50.022;8.424;2023-05-20T12:24:19;14.13;;;9.40;;
3271;SDS011;1648;50.022;8.424;2023-05-20T12:39:22;13.60;;;9.50;;
3271;SDS011;1648;50.022;8.424;2023-05-20T12:54:26;13.63;;;10.87;;
3271;SDS011;1648;50.022;8.424;2023-05-20T13:09:29;12.47;;;8.80;;
3271;SDS011;1648;50.022;8.424;2023-05-20T13:24:32;13.83;;;10.43;;
3271;SDS011;1648;50.022;8.424;2023-05-20T13:39:35;15.77;;;10.77;;
3271;SDS011;1648;50.022;8.424;2023-05-20T13:54:38;13.80;;;10.47;;
3271;SDS011;1648;50.022;8.424;2023-05-20T14:09:42;15.00;;;9.97;;
3271;SDS011;1648;50.022;8.424;2023-05-20T14:24:45;15.57;;;10.33;;
3271;SDS011;1648;50.022;8.424;2023-05-20T14:39:48;13.23;;;9.73;;
3271;SDS011;1648;50.022;8.424;2023-05-20T14:54:51;15.23;;;10.07;;
3271;SDS011;1648;50.022;8.424;2023-05-20T15:09:54;15.93;;;10.87;;
3271;SDS011;1648;50.022;8.424;2023-05-20T15:24:58;15.50;;;10.47;;
3271;SDS011;1648;50.022;8.424;2023-05-20T15:40:01;15.93;;;10.77;;
3271;SDS011;1648;50.022;8.424;2023-05-20T15:55:05;14.60;;;10.90;;
3271;SDS011;1648;50.022;8.424;2023-05-20T16:10:09;15.63;;;10.97;;
3271;SDS011;1648;50.022;8.424;2023-05-20T16:25:12;14.50;;;10.97;;
3271;SDS011;1648;50.022;8.424;2023-05-20T16:40:15;15.10;;;10.53;;
3271;SDS011;1648;50.022;8.424;2023-05-20T16:55:18;16.27;;;10.17;;
3271;SDS011;1648;50.022;8.424;2023-05-20T17:10:22;15.77;;;10.40;;
3271;SDS011;1648;50.022;8.424;2023-05-20T17:25:25;18.07;;;10.50;;
3271;SDS011;1648;50.022;8.424;2023-05-20T17:40:30;14.83;;;10.47;;
3271;SDS011;1648;50.022;8.424;2023-05-20T17:55:34;17.80;;;11.60;;
3271;SDS011;1648;50.022;8.424;2023-05-20T18:10:37;16.60;;;12.13;;
3271;SDS011;1648;50.022;8.424;2023-05-20T18:25:40;16.30;;;12.07;;
3271;SDS011;1648;50.022;8.424;2023-05-20T18:40:44;19.80;;;13.60;;
3271;SDS011;1648;50.022;8.424;2023-05-20T18:55:51;23.73;;;15.10;;
3271;SDS011;1648;50.022;8.424;2023-05-20T19:10:54;20.23;;;14.47;;
3271;SDS011;1648;50.022;8.424;2023-05-20T19:25:57;22.07;;;15.07;;
3271;SDS011;1648;50.022;8.424;2023-05-20T19:41:00;23.23;;;14.00;;
3271;SDS011;1648;50.022;8.424;2023-05-20T19:56:06;20.73;;;14.20;;
3271;SDS011;1648;50.022;8.424;2023-05-20T20:11:09;20.23;;;14.23;;
3271;SDS011;1648;50.022;8.424;2023-05-20T20:26:12;26.30;;;15.00;;
3271;SDS011;1648;50.022;8.424;2023-05-20T20:41:15;29.83;;;16.30;;
3271;SDS011;1648;50.022;8.424;2023-05-20T20:56:18;25.00;;;16.00;;
3271;SDS011;1648;50.022;8.424;2023-05-20T21:11:22;21.83;;;15.30;;
3271;SDS011;1648;50.022;8.424;2023-05-20T21:26:25;29.90;;;17.13;;
3271;SDS011;1648;50.022;8.424;2023-05-20T21:41:28;22.97;;;15.27;;
3271;SDS011;1648;50.022;8.424;2023-05-20T21:56:31;25.50;;;16.03;;
3271;SDS011;1648;50.022;8.424;2023-05-20T22:11:34;29.30;;;16.77;;
3271;SDS011;1648;50.022;8.424;2023-05-20T22:26:38;25.57;;;17.43;;
3271;SDS011;1648;50.022;8.424;2023-05-20T22:41:41;24.90;;;15.23;;
3271;SDS011;1648;50.022;8.424;2023-05-20T22:56:44;25.67;;;15.80;;
3271;SDS011;1648;50.022;8.424;2023-05-20T23:11:47;47.03;;;15.83;;
3271;SDS011;1648;50.022;8.424;2023-05-20T23:26:50;26.57;;;13.33;;
3271;SDS011;1648;50.022;8.424;2023-05-20T23:41:53;24.30;;;13.73;;
3271;SDS011;1648;50.022;8.424;2023-05-20T23:56:56;30.40;;;15.67;;
